Time;durP1;ratioP1;P1;durP2;ratioP2;P2;SDS_P1;SDS_P2;PMS_P1;PMS_P2;Temp;Humidity;BMP_temperature;BMP_pressure;BME280_temperature;BME280_humidity;BME280_pressure;Samples;Min_cycle;Max_cycle;Signal;HPM_P1;HPM_P2
2021/08/18 00:00:23;;;;;;;13.57;3.65;;;25.00;47.00;;;;;;5032351;28;20037;-51
2021/08/18 00:02:50;;;;;;;7.05;3.10;;;24.90;46.90;;;;;;5032842;28;20033;-54
2021/08/18 00:05:16;;;;;;;6.97;3.28;;;24.90;47.50;;;;;;5032543;28;20041;-51
2021/08/18 00:07:43;;;;;;;4.03;2.47;;;24.90;46.90;;;;;;5032720;28;20029;-50
2021/08/18 00:10:12;;;;;;;5.93;2.72;;;24.90;46.90;;;;;;5032099;28;20045;-53
2021/08/18 00:12:38;;;;;;;5.78;2.85;;;24.90;46.90;;;;;;5032220;28;20045;-50
2021/08/18 00:15:07;;;;;;;6.78;3.35;;;24.90;46.90;;;;;;5032270;28;20041;-50
2021/08/18 00:17:33;;;;;;;6.10;2.80;;;24.80;46.80;;;;;;5032599;28;20044;-53
2021/08/18 00:20:00;;;;;;;4.80;2.70;;;24.80;46.70;;;;;;5032382;28;20462;-50
2021/08/18 00:22:26;;;;;;;6.88;3.08;;;24.80;46.60;;;;;;5032314;28;20052;-52
2021/08/18 00:24:53;;;;;;;6.65;2.97;;;24.80;46.70;;;;;;5031836;28;20049;-49
2021/08/18 00:27:19;;;;;;;6.07;2.70;;;24.80;46.60;;;;;;5032158;28;20048;-54
2021/08/18 00:29:45;;;;;;;5.30;3.03;;;24.80;46.70;;;;;;5032068;28;20049;-52
2021/08/18 00:32:12;;;;;;;5.70;2.75;;;24.70;46.70;;;;;;5031748;28;20041;-50
2021/08/18 00:34:38;;;;;;;4.75;2.80;;;24.70;46.80;;;;;;5032242;28;20363;-51
2021/08/18 00:37:05;;;;;;;4.30;2.50;;;24.70;46.70;;;;;;5032472;28;20046;-48
2021/08/18 00:39:31;;;;;;;5.30;3.17;;;24.70;47.10;;;;;;5031731;28;20046;-50
2021/08/18 00:41:58;;;;;;;6.32;3.20;;;24.70;46.80;;;;;;5032043;28;20044;-48
2021/08/18 00:44:24;;;;;;;6.55;2.80;;;24.70;46.90;;;;;;5032149;28;20049;-49
2021/08/18 00:46:53;;;;;;;4.95;2.95;;;24.70;46.90;;;;;;5032231;28;20393;-52
2021/08/18 00:49:21;;;;;;;5.65;2.72;;;24.70;46.90;;;;;;5031883;28;20513;-60
2021/08/18 00:51:49;;;;;;;4.88;2.60;;;24.70;46.90;;;;;;5037046;28;20072;-50
2021/08/18 00:54:16;;;;;;;4.85;3.05;;;24.60;46.80;;;;;;5035675;28;20049;-50
2021/08/18 00:56:47;;;;;;;5.32;2.70;;;24.60;46.70;;;;;;5035449;28;20060;-53
2021/08/18 00:59:14;;;;;;;6.05;2.58;;;24.60;46.70;;;;;;5035511;28;20478;-52
2021/08/18 01:01:41;;;;;;;7.95;3.17;;;24.60;46.70;;;;;;5036073;28;20033;-54
2021/08/18 01:04:08;;;;;;;5.43;2.55;;;24.60;46.80;;;;;;5036480;28;20064;-52
2021/08/18 01:06:41;;;;;;;6.72;3.38;;;24.50;46.80;;;;;;5035683;28;20041;-50
2021/08/18 01:09:10;;;;;;;6.03;3.13;;;24.50;46.70;;;;;;5035634;28;20030;-50
2021/08/18 01:11:41;;;;;;;4.85;2.65;;;24.50;46.60;;;;;;5034915;28;20038;-50
2021/08/18 01:14:08;;;;;;;5.30;2.95;;;24.50;46.60;;;;;;5036288;28;20044;-51
2021/08/18 01:16:40;;;;;;;4.45;2.63;;;24.50;46.60;;;;;;5035551;28;20053;-50
2021/08/18 01:19:08;;;;;;;4.63;2.85;;;24.50;46.50;;;;;;5035366;28;20046;-53
2021/08/18 01:21:39;;;;;;;6.22;2.65;;;24.50;46.50;;;;;;5035112;28;20045;-53
2021/08/18 01:24:06;;;;;;;6.47;2.88;;;24.50;46.30;;;;;;5034995;28;20048;-52
2021/08/18 01:26:34;;;;;;;6.70;2.70;;;24.50;46.20;;;;;;5035504;28;20029;-53
2021/08/18 01:29:01;;;;;;;6.50;3.28;;;24.50;46.10;;;;;;5035520;28;20029;-52
2021/08/18 01:31:28;;;;;;;5.15;3.10;;;24.40;46.10;;;;;;5034939;28;20041;-50
2021/08/18 01:33:58;;;;;;;4.45;2.50;;;24.40;46.20;;;;;;5035194;28;20049;-50
2021/08/18 01:36:24;;;;;;;6.38;2.88;;;24.40;46.10;;;;;;5035636;28;20049;-51
2021/08/18 01:38:50;;;;;;;3.90;2.70;;;24.40;46.00;;;;;;5034910;28;20049;-50
2021/08/18 01:41:17;;;;;;;10.32;3.40;;;24.40;46.30;;;;;;5035036;28;20042;-51
2021/08/18 01:43:44;;;;;;;5.93;2.58;;;24.30;48.40;;;;;;5035022;28;20161;-51
2021/08/18 01:46:10;;;;;;;6.68;3.38;;;24.30;49.90;;;;;;5034915;28;20025;-50
2021/08/18 01:48:38;;;;;;;8.20;3.15;;;24.10;50.90;;;;;;5035047;28;20049;-51
2021/08/18 01:51:06;;;;;;;5.97;3.00;;;24.00;51.70;;;;;;5034825;28;20478;-50
2021/08/18 01:53:34;;;;;;;6.25;3.10;;;23.90;52.50;;;;;;5034663;28;20045;-50
2021/08/18 01:56:06;;;;;;;5.72;2.78;;;23.80;52.40;;;;;;5034661;28;20049;-55
2021/08/18 01:58:34;;;;;;;6.25;3.20;;;23.70;52.80;;;;;;5034298;28;20053;-52
2021/08/18 02:01:05;;;;;;;5.05;2.85;;;23.60;53.30;;;;;;5034635;28;20038;-53
2021/08/18 02:03:33;;;;;;;5.15;3.35;;;23.60;53.00;;;;;;5034197;28;20394;-50
2021/08/18 02:05:59;;;;;;;4.65;2.33;;;23.60;52.90;;;;;;5034698;28;20502;-50
2021/08/18 02:08:26;;;;;;;5.32;2.85;;;23.50;53.20;;;;;;5033687;28;20049;-55
2021/08/18 02:10:52;;;;;;;4.53;3.13;;;23.50;53.70;;;;;;5034696;28;20034;-48
2021/08/18 02:13:19;;;;;;;5.80;2.97;;;23.50;54.10;;;;;;5034248;28;20052;-49
2021/08/18 02:15:45;;;;;;;7.90;2.90;;;23.40;55.00;;;;;;5034424;28;20032;-51
2021/08/18 02:18:15;;;;;;;7.43;4.00;;;23.30;54.50;;;;;;5034138;28;20049;-54
2021/08/18 02:20:44;;;;;;;6.37;3.70;;;23.40;53.30;;;;;;5034174;28;20042;-54
2021/08/18 02:23:12;;;;;;;4.60;3.08;;;23.30;54.30;;;;;;5033908;28;20049;-54
2021/08/18 02:25:38;;;;;;;6.18;3.20;;;23.20;54.80;;;;;;5034446;28;20026;-52
2021/08/18 02:28:06;;;;;;;4.03;2.67;;;23.10;55.20;;;;;;5032142;28;20052;-54
2021/08/18 02:30:33;;;;;;;7.18;3.17;;;23.00;55.30;;;;;;5033618;28;20045;-55
2021/08/18 02:32:59;;;;;;;4.38;2.50;;;23.00;55.40;;;;;;5034647;28;20045;-48
2021/08/18 02:35:26;;;;;;;6.10;2.78;;;22.90;55.30;;;;;;5034600;28;20032;-52
2021/08/18 02:37:54;;;;;;;5.13;2.22;;;23.00;55.00;;;;;;5034157;28;20490;-52
2021/08/18 02:40:22;;;;;;;4.70;2.55;;;23.00;54.10;;;;;;5033875;28;20405;-48
2021/08/18 02:42:54;;;;;;;7.45;3.03;;;23.10;52.10;;;;;;5033949;28;20104;-54
2021/08/18 02:45:22;;;;;;;6.95;2.60;;;23.10;51.20;;;;;;5033821;28;20034;-51
2021/08/18 02:47:49;;;;;;;4.95;2.90;;;23.10;50.70;;;;;;5034085;28;20037;-53
2021/08/18 02:50:17;;;;;;;4.35;2.72;;;23.10;50.60;;;;;;5033716;28;20478;-54
2021/08/18 02:52:44;;;;;;;7.05;2.80;;;23.10;50.50;;;;;;5033607;28;20489;-55
2021/08/18 02:55:11;;;;;;;4.53;2.38;;;23.10;50.50;;;;;;5033597;28;20046;-51
2021/08/18 02:57:38;;;;;;;5.47;2.50;;;23.20;50.40;;;;;;5033696;28;20033;-52
2021/08/18 03:00:06;;;;;;;5.40;3.00;;;23.20;50.30;;;;;;5033675;28;20053;-52
2021/08/18 03:02:32;;;;;;;5.80;2.63;;;23.20;50.30;;;;;;5033584;28;20387;-52
2021/08/18 03:04:59;;;;;;;6.38;2.92;;;23.20;50.10;;;;;;5033632;28;20038;-50
2021/08/18 03:07:25;;;;;;;5.20;2.60;;;23.20;50.20;;;;;;5033706;28;20029;-50
2021/08/18 03:09:52;;;;;;;4.90;3.20;;;23.20;50.10;;;;;;5033066;28;20057;-47
2021/08/18 03:12:18;;;;;;;6.30;3.47;;;23.20;50.40;;;;;;5032909;28;20072;-47
2021/08/18 03:14:45;;;;;;;5.72;3.22;;;23.10;50.70;;;;;;5032262;28;20056;-52
2021/08/18 03:17:12;;;;;;;5.45;3.15;;;23.10;51.20;;;;;;5033354;28;20037;-51
2021/08/18 03:19:39;;;;;;;4.80;2.72;;;23.10;51.40;;;;;;5033088;28;20056;-51
2021/08/18 03:22:06;;;;;;;7.20;2.72;;;23.10;51.60;;;;;;5033116;28;20516;-48
2021/08/18 03:24:32;;;;;;;6.47;2.95;;;23.10;51.70;;;;;;5032974;28;20390;-52
2021/08/18 03:26:59;;;;;;;5.72;2.72;;;23.10;51.60;;;;;;5033121;28;20053;-53
2021/08/18 03:29:25;;;;;;;4.05;2.60;;;23.10;51.40;;;;;;5032780;28;20064;-50
2021/08/18 03:31:52;;;;;;;4.95;2.75;;;23.10;51.40;;;;;;5032987;28;20048;-47
2021/08/18 03:34:18;;;;;;;7.20;3.08;;;23.10;51.40;;;;;;5032328;28;20037;-51
2021/08/18 03:36:45;;;;;;;5.65;2.80;;;23.00;51.40;;;;;;5033098;28;20049;-51
2021/08/18 03:39:11;;;;;;;5.50;2.85;;;23.10;51.20;;;;;;5032473;28;20061;-51
2021/08/18 03:41:38;;;;;;;4.57;2.67;;;23.10;51.20;;;;;;5032650;28;20489;-51
2021/08/18 03:44:04;;;;;;;10.95;3.90;;;23.10;51.20;;;;;;5032863;28;20060;-51
2021/08/18 03:46:31;;;;;;;5.88;2.95;;;23.10;51.20;;;;;;5032460;28;20046;-48
2021/08/18 03:48:57;;;;;;;3.97;2.55;;;23.00;51.00;;;;;;5032545;28;20056;-51
2021/08/18 03:51:23;;;;;;;5.22;3.00;;;23.00;51.00;;;;;;5032795;28;20500;-51
2021/08/18 03:53:51;;;;;;;4.30;2.50;;;23.00;51.10;;;;;;5032110;28;20033;-55
2021/08/18 03:56:17;;;;;;;4.80;2.80;;;23.10;51.20;;;;;;5032365;28;20048;-53
2021/08/18 03:58:44;;;;;;;3.67;2.10;;;23.00;51.10;;;;;;5032574;28;20041;-49
2021/08/18 04:01:11;;;;;;;7.38;2.45;;;23.00;51.20;;;;;;5031937;28;20052;-50
2021/08/18 04:03:37;;;;;;;4.28;2.40;;;23.00;51.20;;;;;;5032474;28;20027;-47
2021/08/18 04:06:04;;;;;;;5.28;2.58;;;23.00;51.20;;;;;;5032524;28;20037;-54
2021/08/18 04:08:30;;;;;;;5.72;2.75;;;23.00;51.20;;;;;;5032106;28;20048;-47
2021/08/18 04:10:56;;;;;;;5.78;2.60;;;23.00;51.40;;;;;;5032114;28;20050;-52
2021/08/18 04:13:23;;;;;;;5.20;2.80;;;23.00;51.40;;;;;;5033214;28;20049;-49
2021/08/18 04:15:49;;;;;;;4.60;2.17;;;23.00;51.10;;;;;;5032121;28;20049;-52
2021/08/18 04:18:16;;;;;;;6.05;2.58;;;23.00;51.20;;;;;;5032102;28;20064;-47
2021/08/18 04:20:42;;;;;;;7.38;3.03;;;23.00;51.10;;;;;;5032069;28;20041;-48
2021/08/18 04:23:09;;;;;;;5.53;2.60;;;23.00;51.10;;;;;;5030830;28;20037;-47
2021/08/18 04:25:37;;;;;;;4.03;2.38;;;23.00;51.20;;;;;;5031824;28;20049;-51
2021/08/18 04:28:04;;;;;;;5.45;2.65;;;23.00;51.20;;;;;;5032595;28;20370;-47
2021/08/18 04:30:31;;;;;;;7.53;2.88;;;23.00;51.20;;;;;;5032152;28;20041;-47
2021/08/18 04:32:57;;;;;;;4.35;2.50;;;23.00;51.10;;;;;;5032300;28;20030;-51
2021/08/18 04:35:24;;;;;;;4.35;3.03;;;22.90;51.20;;;;;;5032182;28;20052;-50
2021/08/18 04:37:50;;;;;;;3.80;2.35;;;22.90;51.20;;;;;;5031946;28;20049;-50
2021/08/18 04:40:17;;;;;;;6.18;2.97;;;23.00;51.30;;;;;;5032040;28;20037;-52
2021/08/18 04:42:45;;;;;;;4.45;2.55;;;23.00;51.50;;;;;;5031995;28;20522;-49
2021/08/18 04:45:14;;;;;;;4.65;2.53;;;22.90;51.50;;;;;;5031704;28;20037;-54
2021/08/18 04:47:41;;;;;;;4.25;2.90;;;22.90;51.70;;;;;;5031824;28;20498;-54
2021/08/18 04:50:10;;;;;;;4.68;2.42;;;22.90;51.80;;;;;;5032469;28;20044;-52
2021/08/18 04:52:37;;;;;;;4.07;2.40;;;22.90;52.00;;;;;;5032235;28;20042;-61
2021/08/18 04:55:04;;;;;;;3.40;2.22;;;22.90;52.20;;;;;;5032362;28;20496;-51
2021/08/18 04:57:31;;;;;;;3.95;2.03;;;23.00;52.30;;;;;;5032000;28;20033;-53
2021/08/18 04:59:57;;;;;;;4.18;2.38;;;23.00;52.30;;;;;;5031755;28;20049;-52
2021/08/18 05:02:24;;;;;;;4.15;2.30;;;23.00;52.40;;;;;;5031584;28;20048;-52
2021/08/18 05:04:50;;;;;;;3.95;2.30;;;23.10;53.00;;;;;;5031588;28;20048;-51
2021/08/18 05:07:16;;;;;;;3.63;2.05;;;23.10;52.30;;;;;;5031553;28;20042;-52
2021/08/18 05:09:43;;;;;;;3.70;2.30;;;23.10;52.50;;;;;;5031553;28;20037;-51
2021/08/18 05:12:09;;;;;;;4.75;2.50;;;23.10;52.50;;;;;;5031603;28;20363;-54
2021/08/18 05:14:36;;;;;;;4.53;2.30;;;23.10;52.70;;;;;;5031943;28;20054;-51
2021/08/18 05:17:03;;;;;;;4.90;2.15;;;23.10;52.90;;;;;;5031644;28;20478;-53
2021/08/18 05:19:29;;;;;;;4.03;2.13;;;23.10;52.50;;;;;;5031478;28;20049;-51
2021/08/18 05:21:55;;;;;;;4.68;2.20;;;23.10;52.40;;;;;;5031536;28;20436;-51
2021/08/18 05:24:22;;;;;;;4.05;2.38;;;23.10;52.00;;;;;;5031791;28;20028;-53
2021/08/18 05:26:48;;;;;;;5.93;2.33;;;23.20;52.00;;;;;;5031684;28;20049;-53
2021/08/18 05:29:15;;;;;;;5.22;2.53;;;23.20;52.10;;;;;;5031480;28;20497;-47
2021/08/18 05:31:41;;;;;;;3.90;2.17;;;23.20;51.90;;;;;;5031851;28;20034;-50
2021/08/18 05:34:08;;;;;;;3.30;2.10;;;23.20;52.00;;;;;;5031121;28;20469;-48
2021/08/18 05:36:34;;;;;;;3.72;2.67;;;23.30;52.00;;;;;;5031714;28;20049;-49
2021/08/18 05:39:01;;;;;;;5.20;2.35;;;23.20;51.90;;;;;;5034929;28;20068;-49
2021/08/18 05:41:27;;;;;;;4.20;2.33;;;23.30;51.80;;;;;;5034713;28;20042;-49
2021/08/18 05:43:53;;;;;;;5.43;2.35;;;23.30;51.80;;;;;;5034632;28;20053;-53
2021/08/18 05:46:20;;;;;;;8.80;2.50;;;23.30;52.00;;;;;;5034702;28;20091;-56
2021/08/18 05:48:46;;;;;;;4.72;2.53;;;23.30;52.40;;;;;;5034649;28;20338;-52
2021/08/18 05:51:13;;;;;;;4.50;2.72;;;23.40;52.60;;;;;;5034930;28;20042;-52
2021/08/18 05:53:39;;;;;;;5.65;2.38;;;23.40;53.40;;;;;;5035125;28;20076;-50
2021/08/18 05:56:05;;;;;;;7.07;2.30;;;23.50;53.00;;;;;;5035203;28;20486;-54
2021/08/18 05:58:32;;;;;;;5.22;2.45;;;23.50;52.90;;;;;;5034349;28;20060;-52
2021/08/18 06:00:58;;;;;;;6.28;2.55;;;23.50;53.00;;;;;;5033940;28;20045;-52
2021/08/18 06:03:25;;;;;;;7.80;2.53;;;23.50;53.00;;;;;;5034286;28;20052;-52
2021/08/18 06:05:51;;;;;;;4.88;2.33;;;23.50;53.20;;;;;;5034648;28;20041;-53
2021/08/18 06:08:18;;;;;;;5.25;2.75;;;23.50;53.10;;;;;;5034346;28;20025;-51
2021/08/18 06:10:44;;;;;;;8.10;3.10;;;23.60;53.00;;;;;;5034636;28;20063;-55
2021/08/18 06:13:12;;;;;;;5.25;2.13;;;23.70;53.20;;;;;;5034613;28;20056;-54
2021/08/18 06:15:38;;;;;;;7.25;2.45;;;23.70;53.20;;;;;;5034384;28;20044;-49
2021/08/18 06:18:05;;;;;;;9.85;2.88;;;23.80;53.40;;;;;;5034075;28;20049;-50
2021/08/18 06:20:31;;;;;;;6.32;2.47;;;23.80;53.40;;;;;;5034027;28;20046;-50
2021/08/18 06:22:58;;;;;;;5.25;2.78;;;24.40;53.00;;;;;;5034188;28;20042;-50
2021/08/18 06:25:25;;;;;;;4.28;2.20;;;25.80;49.10;;;;;;5034139;28;20029;-47
2021/08/18 06:27:51;;;;;;;5.35;2.30;;;27.00;46.30;;;;;;5033615;28;20041;-55
2021/08/18 06:30:18;;;;;;;6.45;2.40;;;27.60;44.40;;;;;;5034018;28;20492;-52
2021/08/18 06:32:44;;;;;;;6.28;3.08;;;27.90;43.70;;;;;;5034583;28;20048;-50
2021/08/18 06:35:11;;;;;;;4.00;2.10;;;27.90;43.90;;;;;;5033986;28;20367;-52
2021/08/18 06:37:39;;;;;;;5.53;2.53;;;27.00;45.60;;;;;;5033972;28;20046;-53
2021/08/18 06:40:10;;;;;;;6.45;2.88;;;26.20;47.60;;;;;;5033017;28;20148;-48
2021/08/18 06:42:44;;;;;;;5.78;2.75;;;25.70;49.00;;;;;;5033687;28;20052;-53
2021/08/18 06:45:12;;;;;;;7.57;2.00;;;25.50;49.90;;;;;;5033422;28;20041;-49
2021/08/18 06:47:38;;;;;;;6.75;2.22;;;25.50;49.90;;;;;;5033557;28;20409;-53
2021/08/18 06:50:06;;;;;;;7.60;1.80;;;25.30;50.20;;;;;;5033722;28;20041;-49
2021/08/18 06:52:33;;;;;;;5.28;2.35;;;25.30;50.60;;;;;;5033604;28;20040;-52
2021/08/18 06:54:59;;;;;;;8.68;1.83;;;25.30;51.00;;;;;;5033364;28;20502;-51
2021/08/18 06:57:26;;;;;;;6.30;2.35;;;25.20;51.00;;;;;;5014619;28;20041;-52
2021/08/18 06:59:52;;;;;;;3.58;2.25;;;25.20;50.80;;;;;;5032336;28;20042;-52
2021/08/18 07:02:18;;;;;;;6.80;2.30;;;25.10;50.80;;;;;;5033638;28;20041;-54
2021/08/18 07:04:45;;;;;;;9.98;2.33;;;25.10;50.80;;;;;;5033729;28;20037;-52
2021/08/18 07:07:11;;;;;;;6.03;2.47;;;25.10;51.00;;;;;;5033436;28;20482;-51
2021/08/18 07:09:38;;;;;;;7.22;2.33;;;25.10;51.20;;;;;;5032929;28;20037;-50
2021/08/18 07:12:05;;;;;;;5.07;2.03;;;25.10;51.00;;;;;;5032641;28;20049;-50
2021/08/18 07:14:31;;;;;;;8.95;2.30;;;25.10;50.70;;;;;;5033163;28;20038;-51
2021/08/18 07:16:58;;;;;;;8.85;2.50;;;25.10;50.60;;;;;;5032999;28;20045;-50
2021/08/18 07:19:24;;;;;;;5.13;2.17;;;25.10;50.90;;;;;;5032845;28;20049;-51
2021/08/18 07:21:51;;;;;;;4.93;2.28;;;25.20;50.90;;;;;;5032783;28;20057;-48
2021/08/18 07:24:17;;;;;;;4.68;2.47;;;25.20;50.80;;;;;;5032944;28;20043;-57
2021/08/18 07:26:44;;;;;;;5.82;2.30;;;25.20;50.90;;;;;;5032531;28;20052;-50
2021/08/18 07:29:10;;;;;;;6.07;2.30;;;25.30;51.00;;;;;;5033221;28;20030;-53
2021/08/18 07:31:36;;;;;;;5.30;2.08;;;25.40;51.00;;;;;;5033053;28;20029;-48
2021/08/18 07:34:03;;;;;;;5.03;2.33;;;25.40;50.70;;;;;;5033109;28;20477;-51
2021/08/18 07:36:29;;;;;;;4.78;2.17;;;25.40;50.90;;;;;;5032959;28;20482;-54
2021/08/18 07:38:56;;;;;;;7.32;2.38;;;25.40;51.20;;;;;;5032679;28;20064;-54
2021/08/18 07:41:22;;;;;;;5.65;2.80;;;25.40;51.30;;;;;;5032669;28;20052;-52
2021/08/18 07:43:49;;;;;;;4.85;2.70;;;25.50;50.90;;;;;;5033233;28;20028;-54
2021/08/18 07:46:15;;;;;;;6.22;3.03;;;25.30;51.40;;;;;;5032774;28;20344;-51
2021/08/18 07:48:42;;;;;;;6.88;2.53;;;25.40;51.50;;;;;;5033088;28;20386;-52
2021/08/18 07:51:09;;;;;;;5.72;2.08;;;25.60;51.50;;;;;;5032529;28;20045;-55
2021/08/18 07:53:41;;;;;;;5.40;2.38;;;25.80;51.40;;;;;;5032600;28;20049;-51
2021/08/18 07:56:07;;;;;;;5.95;2.63;;;25.80;51.90;;;;;;5033166;28;20029;-52
2021/08/18 07:58:34;;;;;;;4.22;2.53;;;25.80;50.80;;;;;;5032605;28;20049;-51
2021/08/18 08:01:00;;;;;;;5.70;2.10;;;25.80;50.80;;;;;;5031986;28;20069;-51
2021/08/18 08:03:26;;;;;;;5.38;2.28;;;25.90;50.80;;;;;;5032634;28;20053;-51
2021/08/18 08:05:53;;;;;;;5.07;2.55;;;26.00;50.80;;;;;;5032483;28;20037;-51
2021/08/18 08:08:19;;;;;;;7.60;2.70;;;26.10;50.90;;;;;;5032306;28;20037;-49
2021/08/18 08:10:46;;;;;;;8.02;2.92;;;26.10;51.20;;;;;;5032310;28;20510;-50
2021/08/18 08:13:12;;;;;;;5.50;2.67;;;26.20;51.30;;;;;;5032371;28;20052;-56
2021/08/18 08:15:39;;;;;;;6.85;3.40;;;26.30;51.30;;;;;;5032435;28;20029;-49
2021/08/18 08:18:06;;;;;;;6.97;3.33;;;26.40;51.20;;;;;;5032076;28;20038;-52
2021/08/18 08:20:33;;;;;;;5.22;2.78;;;26.40;51.60;;;;;;5032432;28;20049;-49
2021/08/18 08:23:01;;;;;;;7.22;2.78;;;26.50;52.30;;;;;;5032427;28;20109;-49
2021/08/18 08:25:28;;;;;;;10.27;3.03;;;26.50;52.70;;;;;;5032631;28;20046;-53
2021/08/18 08:27:54;;;;;;;7.07;3.17;;;26.30;53.10;;;;;;5031639;28;20046;-47
2021/08/18 08:30:22;;;;;;;7.03;4.00;;;26.40;52.90;;;;;;5032156;28;20045;-52
2021/08/18 08:32:49;;;;;;;7.00;3.60;;;26.30;53.60;;;;;;5032331;28;20030;-51
2021/08/18 08:35:16;;;;;;;8.00;4.57;;;26.20;54.50;;;;;;5032241;28;20049;-52
2021/08/18 08:37:42;;;;;;;8.18;3.17;;;26.20;54.40;;;;;;5031957;28;20041;-52
2021/08/18 08:40:10;;;;;;;6.63;3.60;;;26.30;54.40;;;;;;5031919;28;20596;-51
2021/08/18 08:42:39;;;;;;;8.23;3.20;;;26.40;54.10;;;;;;5032709;28;20041;-51
2021/08/18 08:45:08;;;;;;;7.18;3.33;;;26.50;53.90;;;;;;5032257;28;20056;-58
2021/08/18 08:47:35;;;;;;;6.53;3.60;;;26.40;54.20;;;;;;5032086;28;20041;-54
2021/08/18 08:50:04;;;;;;;6.57;3.35;;;26.40;54.60;;;;;;5032057;28;20026;-54
2021/08/18 08:52:33;;;;;;;7.28;4.13;;;26.40;54.60;;;;;;5031923;28;20501;-51
2021/08/18 08:55:00;;;;;;;9.85;4.03;;;26.30;55.20;;;;;;5031862;28;20046;-53
2021/08/18 08:57:27;;;;;;;8.95;3.70;;;26.30;55.30;;;;;;5031553;28;20042;-55
2021/08/18 08:59:53;;;;;;;10.82;4.15;;;26.30;55.30;;;;;;5031917;28;20057;-50
2021/08/18 09:02:21;;;;;;;7.18;2.85;;;26.50;55.10;;;;;;5031749;28;20067;-51
2021/08/18 09:04:49;;;;;;;7.53;3.33;;;26.50;55.00;;;;;;5031806;28;20420;-51
2021/08/18 09:07:20;;;;;;;6.00;3.47;;;26.70;54.90;;;;;;5032565;28;20481;-53
2021/08/18 09:09:55;;;;;;;9.95;4.30;;;26.90;54.30;;;;;;5031640;28;20493;-50
2021/08/18 09:12:34;;;;;;;9.38;3.10;;;26.90;54.00;;;;;;5033765;28;20358;-49
2021/08/18 09:15:12;;;;;;;7.63;4.10;;;27.00;54.50;;;;;;5035233;28;20041;-53
2021/08/18 09:17:39;;;;;;;4.97;2.58;;;27.00;54.00;;;;;;5035474;28;20509;-50
2021/08/18 09:20:12;;;;;;;6.25;3.22;;;27.00;54.00;;;;;;5035354;28;20069;-50
2021/08/18 09:22:43;;;;;;;13.32;3.67;;;27.10;54.10;;;;;;5035678;28;20021;-50
2021/08/18 09:25:15;;;;;;;8.85;3.08;;;27.20;54.10;;;;;;5035475;28;20366;-52
2021/08/18 09:27:43;;;;;;;5.85;3.25;;;27.20;53.80;;;;;;5035522;28;20386;-52
2021/08/18 09:30:27;;;;;;;7.97;2.85;;;27.20;53.40;;;;;;5035010;28;20068;-51
2021/08/18 09:32:56;;;;;;;9.98;3.60;;;27.20;53.30;;;;;;5035833;28;20052;-52
2021/08/18 09:35:25;;;;;;;8.95;3.22;;;27.20;53.50;;;;;;5035042;28;20362;-50
2021/08/18 09:38:03;;;;;;;6.15;2.95;;;27.20;53.40;;;;;;5035176;28;20048;-54
2021/08/18 09:40:40;;;;;;;8.48;3.65;;;27.30;53.50;;;;;;5035376;28;20049;-52
2021/08/18 09:43:14;;;;;;;8.02;3.45;;;27.30;53.20;;;;;;5034835;28;20046;-48
2021/08/18 09:46:05;;;;;;;7.93;3.85;;;27.40;53.00;;;;;;5035270;28;20045;-52
2021/08/18 09:48:33;;;;;;;6.07;3.75;;;27.20;53.20;;;;;;5034678;28;20041;-51
2021/08/18 09:51:09;;;;;;;7.50;3.28;;;27.10;53.40;;;;;;5034859;28;20045;-50
2021/08/18 09:53:40;;;;;;;5.70;3.60;;;27.20;53.60;;;;;;5034920;28;20045;-51
2021/08/18 09:56:07;;;;;;;6.35;3.22;;;27.30;53.50;;;;;;5034086;28;20065;-53
2021/08/18 09:58:48;;;;;;;11.38;3.50;;;27.40;53.40;;;;;;5034861;28;20500;-54
2021/08/18 10:01:15;;;;;;;7.70;3.67;;;27.60;53.00;;;;;;5033342;28;20056;-53
2021/08/18 10:03:44;;;;;;;8.82;3.45;;;27.50;52.30;;;;;;5034335;28;20045;-55
2021/08/18 10:06:12;;;;;;;7.60;3.30;;;27.40;52.50;;;;;;5034566;28;20057;-50
2021/08/18 10:08:40;;;;;;;8.45;3.42;;;27.50;52.40;;;;;;5034342;28;20049;-53
2021/08/18 10:11:09;;;;;;;7.00;3.72;;;27.50;52.20;;;;;;5033983;28;20037;-51
2021/08/18 10:13:36;;;;;;;7.70;3.38;;;27.30;52.40;;;;;;5034898;28;20363;-52
2021/08/18 10:16:02;;;;;;;9.25;3.85;;;27.40;52.60;;;;;;5034586;28;20489;-54
2021/08/18 10:18:38;;;;;;;5.88;3.17;;;27.50;52.60;;;;;;5033514;28;20042;-51
2021/08/18 10:21:18;;;;;;;6.63;3.20;;;27.60;51.60;;;;;;5034254;28;20502;-52
2021/08/18 10:23:55;;;;;;;5.43;3.13;;;27.70;50.80;;;;;;5033974;28;20397;-53
2021/08/18 10:29:36;;;;;;;7.88;3.30;;;27.80;50.40;;;;;;5034274;28;20052;-59
2021/08/18 10:32:08;;;;;;;7.95;3.58;;;27.90;51.10;;;;;;5033646;28;20033;-53
2021/08/18 10:34:40;;;;;;;5.85;2.88;;;27.50;51.60;;;;;;5034540;28;20036;-52
2021/08/18 10:37:13;;;;;;;5.07;2.80;;;27.60;51.90;;;;;;5034395;28;20052;-54
2021/08/18 10:39:43;;;;;;;5.15;3.30;;;27.70;52.00;;;;;;5033726;28;20071;-54
2021/08/18 10:42:13;;;;;;;4.68;2.90;;;27.70;51.80;;;;;;5033950;28;20041;-52
2021/08/18 10:44:45;;;;;;;;;;;27.80;51.90;;;;;;5034337;28;20152;-52
2021/08/18 10:47:26;;;;;;;6.32;3.13;;;27.90;51.80;;;;;;5033807;28;19909;-54
2021/08/18 10:50:16;;;;;;;9.57;3.58;;;27.90;51.70;;;;;;5034373;28;20041;-51
2021/08/18 10:52:42;;;;;;;;;;;27.70;52.00;;;;;;5034108;28;20398;-52
2021/08/18 10:55:38;;;;;;;6.65;3.83;;;27.70;52.00;;;;;;5033697;28;19916;-51
2021/08/18 10:58:05;;;;;;;8.23;3.33;;;27.60;51.30;;;;;;5032827;28;20038;-54
2021/08/18 11:00:40;;;;;;;4.13;2.75;;;27.60;51.40;;;;;;5033516;28;20410;-53
2021/08/18 11:03:13;;;;;;;6.15;3.13;;;27.70;51.30;;;;;;5033637;28;20032;-52
2021/08/18 11:05:40;;;;;;;7.50;3.28;;;27.80;51.10;;;;;;5033354;28;20378;-50
2021/08/18 11:08:36;;;;;;;16.70;3.72;;;27.80;51.20;;;;;;5033297;28;20486;-50
2021/08/18 11:11:03;;;;;;;7.82;3.15;;;27.80;51.10;;;;;;5033342;28;20049;-55
2021/08/18 11:13:53;;;;;;;6.30;3.33;;;27.90;51.30;;;;;;5033356;28;20061;-51
2021/08/18 11:16:23;;;;;;;6.55;3.15;;;27.90;50.90;;;;;;5033209;28;20041;-54
2021/08/18 11:18:52;;;;;;;;;;;27.80;50.90;;;;;;5034340;28;20502;-50
2021/08/18 11:21:28;;;;;;;7.80;3.33;;;27.70;50.90;;;;;;5033311;28;19917;-54
2021/08/18 11:23:57;;;;;;;4.40;2.60;;;27.80;51.60;;;;;;5033477;28;20061;-53
2021/08/18 11:26:27;;;;;;;5.87;3.13;;;27.70;51.30;;;;;;5033131;28;20391;-54
2021/08/18 11:29:05;;;;;;;11.48;2.85;;;27.70;50.20;;;;;;5033352;28;20053;-55
2021/08/18 11:31:33;;;;;;;3.63;2.42;;;27.50;49.60;;;;;;5032157;28;20049;-52
2021/08/18 11:34:00;;;;;;;7.68;2.78;;;27.40;49.80;;;;;;5032668;28;20481;-53
2021/08/18 11:36:33;;;;;;;5.78;2.63;;;27.50;49.70;;;;;;5032574;28;20045;-52
2021/08/18 11:39:04;;;;;;;6.38;2.58;;;27.50;50.40;;;;;;5032776;28;20070;-52
2021/08/18 11:41:32;;;;;;;6.60;2.35;;;27.50;50.10;;;;;;5031701;28;20073;-52
2021/08/18 11:43:59;;;;;;;4.20;2.30;;;27.50;49.90;;;;;;5032690;28;20057;-51
2021/08/18 11:46:26;;;;;;;5.97;2.22;;;27.50;49.50;;;;;;5032830;28;20048;-53
2021/08/18 11:49:01;;;;;;;5.68;2.40;;;27.60;49.30;;;;;;5032716;28;20049;-54
2021/08/18 11:51:27;;;;;;;6.35;2.42;;;27.70;49.80;;;;;;5032253;28;20397;-53
2021/08/18 11:53:54;;;;;;;8.48;2.95;;;27.90;49.70;;;;;;5033020;28;20037;-51
2021/08/18 11:56:30;;;;;;;6.18;3.08;;;27.90;48.50;;;;;;5032927;28;20056;-47
2021/08/18 11:59:02;;;;;;;5.35;2.38;;;27.90;48.20;;;;;;5032581;28;20474;-48
2021/08/18 12:01:30;;;;;;;9.90;2.88;;;28.00;48.60;;;;;;5032757;28;20060;-49
2021/08/18 12:03:57;;;;;;;6.50;2.85;;;27.80;48.20;;;;;;5032305;28;20394;-48
2021/08/18 12:06:35;;;;;;;8.85;2.50;;;27.80;48.30;;;;;;5032471;28;20454;-52
2021/08/18 12:09:05;;;;;;;5.93;2.03;;;27.90;48.70;;;;;;5031820;28;20451;-52
2021/08/18 12:11:37;;;;;;;7.15;3.03;;;27.90;48.70;;;;;;5031948;28;20053;-53
2021/08/18 12:14:36;;;;;;;4.45;2.22;;;27.80;48.20;;;;;;5032722;28;20474;-50
2021/08/18 12:17:02;;;;;;;5.20;2.08;;;27.80;47.70;;;;;;5032395;28;20045;-52
2021/08/18 12:19:29;;;;;;;9.13;2.75;;;27.90;48.50;;;;;;5031955;28;20048;-55
2021/08/18 12:22:25;;;;;;;4.95;2.40;;;27.90;49.00;;;;;;5032364;28;20037;-55
2021/08/18 12:25:12;;;;;;;7.95;2.33;;;27.90;49.40;;;;;;5032110;28;20049;-55
2021/08/18 12:27:38;;;;;;;5.50;2.90;;;27.90;49.50;;;;;;5032551;28;20042;-56
2021/08/18 12:30:10;;;;;;;6.57;2.33;;;27.80;49.60;;;;;;5032279;28;20042;-55
2021/08/18 12:32:38;;;;;;;5.15;2.28;;;27.80;49.20;;;;;;5032349;28;20520;-49
2021/08/18 12:35:05;;;;;;;4.32;2.25;;;27.80;49.20;;;;;;5032125;28;20474;-54
2021/08/18 12:37:38;;;;;;;7.05;2.20;;;27.90;49.30;;;;;;5032148;28;20045;-53
2021/08/18 12:40:11;;;;;;;4.78;2.22;;;28.00;48.90;;;;;;5031909;28;20512;-51
2021/08/18 12:42:43;;;;;;;6.95;2.30;;;28.10;47.50;;;;;;5032603;28;20025;-56
2021/08/18 12:45:14;;;;;;;3.90;2.33;;;28.10;47.30;;;;;;5032104;28;20381;-54
2021/08/18 12:47:42;;;;;;;4.90;2.28;;;28.00;47.60;;;;;;5035946;28;20371;-53
2021/08/18 12:50:14;;;;;;;6.43;2.60;;;28.00;48.30;;;;;;5036140;28;20045;-54
2021/08/18 12:52:41;;;;;;;4.68;1.88;;;28.10;48.10;;;;;;5035796;28;20473;-49
2021/08/18 12:55:08;;;;;;;7.07;2.40;;;28.10;48.00;;;;;;5035846;28;20053;-52
2021/08/18 12:57:35;;;;;;;5.72;2.40;;;28.10;47.50;;;;;;5036113;28;20038;-52